Time;durP1;ratioP1;P1;durP2;ratioP2;P2;SDS_P1;SDS_P2;PMS_P1;PMS_P2;Temp;Humidity;BMP_temperature;BMP_pressure;BME280_temperature;BME280_humidity;BME280_pressure;Samples;Min_cycle;Max_cycle;Signal;HPM_P1;HPM_P2
2023/03/05 00:00:36;;;;;;;9.63;2.10;;;7.00;99.90;;;;;;5063055;28;20028;-88
2023/03/05 00:03:25;;;;;;;10.32;2.00;;;7.00;99.90;;;;;;5062679;28;20028;-88
2023/03/05 00:05:56;;;;;;;12.75;2.38;;;7.00;99.90;;;;;;5054168;28;20047;-89
2023/03/05 00:08:22;;;;;;;;;;;7.00;99.90;;;;;;5080074;28;20028;-89
2023/03/05 00:10:55;;;;;;;15.25;2.63;;;6.90;99.90;;;;;;5097962;28;19911;-92
2023/03/05 00:13:21;;;;;;;12.02;2.30;;;6.90;99.90;;;;;;5082139;28;20028;-91
2023/03/05 00:15:47;;;;;;;11.93;2.50;;;6.90;99.90;;;;;;5062615;28;20063;-93
2023/03/05 00:18:13;;;;;;;15.38;2.55;;;6.90;99.90;;;;;;5079824;28;20028;-91
2023/03/05 00:20:38;;;;;;;10.27;2.60;;;6.90;99.90;;;;;;5079613;28;20525;-91
2023/03/05 00:23:04;;;;;;;13.52;3.55;;;6.90;99.90;;;;;;5079842;28;20020;-92
2023/03/05 00:25:30;;;;;;;12.00;3.05;;;6.90;99.90;;;;;;5079557;28;20119;-91
2023/03/05 00:27:55;;;;;;;14.00;3.25;;;6.90;99.90;;;;;;5062775;28;20115;-89
2023/03/05 00:30:21;;;;;;;13.48;2.60;;;6.90;99.90;;;;;;5061964;28;20464;-89
2023/03/05 00:32:46;;;;;;;11.57;2.50;;;6.90;99.90;;;;;;5079292;28;20455;-88
2023/03/05 00:35:12;;;;;;;13.10;3.95;;;6.90;99.90;;;;;;5062292;28;20035;-89
2023/03/05 00:37:38;;;;;;;12.75;2.97;;;6.90;99.90;;;;;;5096189;28;20417;-89
2023/03/05 00:40:04;;;;;;;12.38;2.70;;;6.90;99.90;;;;;;5078364;28;20487;-88
2023/03/05 00:42:37;;;;;;;7.30;2.17;;;6.90;99.90;;;;;;5061892;28;20430;-88
2023/03/05 00:45:06;;;;;;;10.52;2.90;;;6.90;99.90;;;;;;5067124;28;20087;-88
2023/03/05 00:47:33;;;;;;;9.50;2.67;;;6.90;99.90;;;;;;5110557;28;20063;-88
2023/03/05 00:49:59;;;;;;;10.07;3.03;;;6.90;99.90;;;;;;5080806;28;20032;-88
2023/03/05 00:52:25;;;;;;;11.15;2.90;;;6.80;99.90;;;;;;5064123;28;20031;-87
2023/03/05 00:54:51;;;;;;;10.57;2.35;;;6.80;99.90;;;;;;5063016;28;20403;-88
2023/03/05 00:57:17;;;;;;;8.73;2.20;;;6.90;99.90;;;;;;5062569;28;20032;-87
2023/03/05 00:59:43;;;;;;;8.73;2.30;;;6.80;99.90;;;;;;5079545;28;20016;-87
2023/03/05 01:02:09;;;;;;;11.15;2.67;;;6.80;99.90;;;;;;5062501;28;20012;-88
2023/03/05 01:04:34;;;;;;;11.73;2.65;;;6.80;99.90;;;;;;5079205;28;20036;-87
2023/03/05 01:07:00;;;;;;;8.55;2.10;;;6.80;99.90;;;;;;5078898;28;20108;-87
2023/03/05 01:09:26;;;;;;;11.77;3.08;;;6.80;99.90;;;;;;5078584;28;20523;-87
2023/03/05 01:11:52;;;;;;;10.25;2.50;;;6.80;99.90;;;;;;5062254;28;20024;-87
2023/03/05 01:14:19;;;;;;;12.88;2.85;;;6.80;99.90;;;;;;5078458;28;20020;-87
2023/03/05 01:16:45;;;;;;;14.77;3.03;;;6.80;99.90;;;;;;5061594;28;20053;-88
2023/03/05 01:19:11;;;;;;;13.98;2.60;;;6.80;99.90;;;;;;5061967;28;20027;-88
2023/03/05 01:21:37;;;;;;;9.13;2.30;;;6.80;99.90;;;;;;5078702;28;20024;-88
2023/03/05 01:24:03;;;;;;;9.13;2.15;;;6.80;99.90;;;;;;5061871;28;20027;-88
2023/03/05 01:26:29;;;;;;;7.28;2.40;;;6.80;99.90;;;;;;5095768;28;20032;-87
2023/03/05 01:28:55;;;;;;;13.43;3.60;;;6.80;99.90;;;;;;5078512;28;20118;-88
2023/03/05 01:31:20;;;;;;;12.18;2.47;;;6.80;99.90;;;;;;5096581;28;20456;-88
2023/03/05 01:33:46;;;;;;;13.73;3.50;;;6.80;99.90;;;;;;5061901;28;20456;-88
2023/03/05 01:36:15;;;;;;;11.38;2.25;;;6.70;99.90;;;;;;5078660;28;20484;-87
2023/03/05 01:38:46;;;;;;;12.60;2.55;;;6.70;99.90;;;;;;5078231;28;20380;-87
2023/03/05 01:41:13;;;;;;;12.98;3.10;;;6.70;99.90;;;;;;5078391;28;20047;-88
2023/03/05 01:43:40;;;;;;;15.18;2.97;;;6.70;99.90;;;;;;5078202;28;20016;-88
2023/03/05 01:46:12;;;;;;;18.38;5.75;;;6.70;99.90;;;;;;5061795;28;20032;-88
2023/03/05 01:48:43;;;;;;;23.58;4.75;;;6.70;99.90;;;;;;5078285;28;20028;-88
2023/03/05 01:51:09;;;;;;;18.65;5.05;;;6.70;99.90;;;;;;5078486;28;20032;-88
2023/03/05 01:53:35;;;;;;;10.43;3.20;;;6.70;99.90;;;;;;5061049;28;20020;-88
2023/03/05 01:56:01;;;;;;;14.77;3.20;;;6.70;99.90;;;;;;5076623;28;20032;-88
2023/03/05 01:58:27;;;;;;;18.95;3.17;;;6.60;99.90;;;;;;5059706;28;20502;-88
2023/03/05 02:00:55;;;;;;;13.00;4.15;;;6.70;99.90;;;;;;5076493;28;20119;-88
2023/03/05 02:03:22;;;;;;;13.57;4.07;;;6.70;99.90;;;;;;5076600;28;20016;-89
2023/03/05 02:05:48;;;;;;;11.00;2.90;;;6.60;99.90;;;;;;5060362;28;20028;-88
2023/03/05 02:08:18;;;;;;;12.95;3.22;;;6.60;99.90;;;;;;5077321;28;20035;-87
2023/03/05 02:10:49;;;;;;;9.77;2.35;;;6.60;99.90;;;;;;5077337;28;20016;-88
2023/03/05 02:13:30;;;;;;;12.88;3.92;;;6.60;99.90;;;;;;5077383;28;20021;-88
2023/03/05 02:15:58;;;;;;;9.88;2.58;;;6.60;99.90;;;;;;5094771;28;20475;-87
2023/03/05 02:18:24;;;;;;;7.68;1.65;;;6.60;99.90;;;;;;5077196;28;20024;-87
2023/03/05 02:20:58;;;;;;;9.35;2.13;;;6.60;99.90;;;;;;5077238;28;20495;-87
2023/03/05 02:23:27;;;;;;;9.60;1.70;;;6.60;99.90;;;;;;5077482;28;20031;-88
2023/03/05 02:25:53;;;;;;;14.70;3.40;;;6.50;99.90;;;;;;5077642;28;20123;-88
2023/03/05 02:28:39;;;;;;;8.55;1.85;;;6.60;99.90;;;;;;5095715;28;20035;-88
2023/03/05 02:31:18;;;;;;;9.07;1.92;;;6.50;99.90;;;;;;5077804;28;20105;-88
2023/03/05 02:33:44;;;;;;;10.13;2.10;;;6.50;99.90;;;;;;5077136;28;20052;-88
2023/03/05 02:36:10;;;;;;;10.35;2.15;;;6.40;99.90;;;;;;5077255;28;20030;-88
2023/03/05 02:38:36;;;;;;;8.75;2.67;;;6.40;99.90;;;;;;5060443;28;20032;-89
2023/03/05 02:41:02;;;;;;;10.13;2.40;;;6.40;99.90;;;;;;5075943;28;20058;-87
2023/03/05 02:43:28;;;;;;;19.85;2.70;;;6.40;99.90;;;;;;5077364;28;20043;-88
2023/03/05 02:45:54;;;;;;;13.30;2.85;;;6.40;99.90;;;;;;5087390;28;20016;-87
2023/03/05 02:48:19;;;;;;;8.35;2.17;;;6.40;99.90;;;;;;5100234;28;20008;-89
2023/03/05 02:50:46;;;;;;;13.07;2.58;;;6.40;99.90;;;;;;5099396;28;20020;-88
2023/03/05 02:53:12;;;;;;;11.38;2.47;;;6.40;99.90;;;;;;5101022;28;20043;-88
2023/03/05 02:55:38;;;;;;;12.38;2.75;;;6.30;99.90;;;;;;5070053;28;20024;-90
2023/03/05 02:58:04;;;;;;;10.52;3.10;;;6.30;99.90;;;;;;5087135;28;20008;-86
2023/03/05 03:00:29;;;;;;;10.32;2.70;;;6.30;99.90;;;;;;5103285;28;20079;-89
2023/03/05 03:02:55;;;;;;;11.75;3.40;;;6.30;99.90;;;;;;5051558;28;20380;-89
2023/03/05 03:05:21;;;;;;;14.20;3.25;;;6.30;99.90;;;;;;5065353;28;20127;-88
2023/03/05 03:07:47;;;;;;;12.57;3.63;;;6.30;99.90;;;;;;5080505;28;20127;-88
2023/03/05 03:10:12;;;;;;;13.48;3.78;;;6.30;99.90;;;;;;5064853;28;20024;-88
2023/03/05 03:12:40;;;;;;;13.82;3.67;;;6.30;99.90;;;;;;5062270;28;20032;-88
2023/03/05 03:15:08;;;;;;;14.43;3.22;;;6.30;99.90;;;;;;5077347;28;20427;-88
2023/03/05 03:17:35;;;;;;;10.77;3.30;;;6.30;99.90;;;;;;5060082;28;20029;-86
2023/03/05 03:20:02;;;;;;;12.35;3.38;;;6.30;99.90;;;;;;5077515;28;20042;-87
2023/03/05 03:22:28;;;;;;;11.50;3.13;;;6.30;99.90;;;;;;5044653;28;20487;-87
2023/03/05 03:24:54;;;;;;;14.15;3.92;;;6.30;99.90;;;;;;5076771;28;20024;-90
2023/03/05 03:27:20;;;;;;;12.02;3.03;;;6.30;99.90;;;;;;5060046;28;20059;-88
2023/03/05 03:29:46;;;;;;;13.52;3.45;;;6.20;99.90;;;;;;5059760;28;20033;-88
2023/03/05 03:32:12;;;;;;;8.45;3.10;;;6.20;99.90;;;;;;5060231;28;20025;-88
2023/03/05 03:34:38;;;;;;;10.38;3.15;;;6.20;99.90;;;;;;5060278;28;20025;-88
2023/03/05 03:37:04;;;;;;;10.73;3.20;;;6.20;99.90;;;;;;5076354;28;20082;-87
2023/03/05 03:39:29;;;;;;;15.40;3.47;;;6.20;99.90;;;;;;5075934;28;20075;-88
2023/03/05 03:41:55;;;;;;;9.07;3.10;;;6.20;99.90;;;;;;5077308;28;20021;-87
2023/03/05 03:44:21;;;;;;;12.68;3.17;;;6.20;99.90;;;;;;5059648;28;20123;-88
2023/03/05 03:46:48;;;;;;;14.38;3.30;;;6.20;99.90;;;;;;5076600;28;20039;-88
2023/03/05 03:49:22;;;;;;;9.43;2.83;;;6.20;99.90;;;;;;5076273;28;20492;-87
2023/03/05 03:51:49;;;;;;;10.40;3.20;;;6.20;99.90;;;;;;5084403;28;20028;-88
2023/03/05 03:54:16;;;;;;;12.63;3.20;;;6.20;99.90;;;;;;5080682;28;20017;-87
2023/03/05 03:56:42;;;;;;;10.85;3.20;;;6.20;99.90;;;;;;5076061;28;20121;-87
2023/03/05 03:59:08;;;;;;;15.07;3.38;;;6.20;99.90;;;;;;5075959;28;20117;-87
2023/03/05 04:01:34;;;;;;;9.55;3.13;;;6.20;99.90;;;;;;5059155;28;20029;-88
2023/03/05 04:04:00;;;;;;;8.07;2.88;;;6.20;99.90;;;;;;5075226;28;20027;-87
2023/03/05 04:06:25;;;;;;;8.27;2.83;;;6.20;99.90;;;;;;5058724;28;20131;-88
2023/03/05 04:08:51;;;;;;;11.15;3.10;;;6.10;99.90;;;;;;5058773;28;20034;-87
2023/03/05 04:11:18;;;;;;;9.95;2.70;;;6.10;99.90;;;;;;5059072;28;20036;-88
2023/03/05 04:13:44;;;;;;;13.18;2.63;;;6.20;99.90;;;;;;5076743;28;20020;-88
2023/03/05 04:16:11;;;;;;;10.65;3.10;;;6.10;99.90;;;;;;5058350;28;20056;-88
2023/03/05 04:18:37;;;;;;;9.77;2.53;;;6.10;99.90;;;;;;5075240;28;20016;-88
2023/03/05 04:21:04;;;;;;;9.93;2.60;;;6.10;99.90;;;;;;5059392;28;20032;-91
2023/03/05 04:23:30;;;;;;;14.63;2.45;;;6.10;99.90;;;;;;5058883;28;20025;-88
2023/03/05 04:25:55;;;;;;;10.85;2.63;;;6.10;99.90;;;;;;5058672;28;20043;-88
2023/03/05 04:28:21;;;;;;;9.60;2.38;;;6.00;99.90;;;;;;5058649;28;20035;-87
2023/03/05 04:30:47;;;;;;;14.43;2.88;;;6.00;99.90;;;;;;5057775;28;20035;-87
2023/03/05 04:33:12;;;;;;;6.82;2.28;;;6.00;99.90;;;;;;5058217;28;20476;-87
2023/03/05 04:35:38;;;;;;;10.32;2.50;;;6.00;99.90;;;;;;5058508;28;20039;-88
2023/03/05 04:38:06;;;;;;;10.70;2.25;;;6.10;99.90;;;;;;5043723;28;20055;-87
2023/03/05 04:40:31;;;;;;;10.98;2.50;;;6.00;99.90;;;;;;5078681;28;20028;-87
2023/03/05 04:42:57;;;;;;;9.30;2.42;;;6.00;99.90;;;;;;5078565;28;20560;-87
2023/03/05 04:45:23;;;;;;;6.65;2.05;;;6.00;99.90;;;;;;5061102;28;20042;-87
2023/03/05 04:47:50;;;;;;;11.65;2.88;;;6.00;99.90;;;;;;5078187;28;20157;-87
2023/03/05 04:50:15;;;;;;;8.40;2.30;;;6.00;99.90;;;;;;5062216;28;20521;-87
2023/03/05 04:52:43;;;;;;;7.50;1.83;;;6.00;99.90;;;;;;5078082;28;20087;-87
2023/03/05 04:55:09;;;;;;;11.75;2.40;;;6.00;99.90;;;;;;5061495;28;20024;-87
2023/03/05 04:57:35;;;;;;;7.07;1.75;;;6.00;99.90;;;;;;5078215;28;20142;-87
2023/03/05 05:00:05;;;;;;;6.88;1.58;;;6.00;99.90;;;;;;5061364;28;20044;-87
2023/03/05 05:02:31;;;;;;;7.97;1.92;;;6.10;99.90;;;;;;5078122;28;20114;-87
2023/03/05 05:04:57;;;;;;;11.20;2.17;;;6.00;99.90;;;;;;5078222;28;20031;-87
2023/03/05 05:07:22;;;;;;;9.20;2.03;;;6.00;99.90;;;;;;5061835;28;20024;-87
2023/03/05 05:09:48;;;;;;;10.60;3.00;;;6.00;99.90;;;;;;5060917;28;20383;-87
2023/03/05 05:12:14;;;;;;;9.73;2.60;;;6.00;99.90;;;;;;5077968;28;20372;-87
2023/03/05 05:14:39;;;;;;;10.30;2.33;;;6.00;99.90;;;;;;5044488;28;20031;-86
2023/03/05 05:17:05;;;;;;;11.00;2.40;;;6.00;99.90;;;;;;5024342;28;20049;-88
2023/03/05 05:19:40;;;;;;;8.27;1.90;;;6.00;99.90;;;;;;5024609;28;20500;-87
2023/03/05 05:22:05;;;;;;;10.52;2.20;;;5.90;99.90;;;;;;5041742;28;20062;-88
2023/03/05 05:24:31;;;;;;;8.27;1.85;;;5.90;99.90;;;;;;5058314;28;20040;-88
2023/03/05 05:26:57;;;;;;;9.52;2.45;;;5.90;99.90;;;;;;5025006;28;20105;-88
2023/03/05 05:29:22;;;;;;;11.10;2.05;;;5.90;99.90;;;;;;5058396;28;20114;-88
2023/03/05 05:31:48;;;;;;;9.82;2.10;;;5.90;99.90;;;;;;5041912;28;20032;-88
2023/03/05 05:34:15;;;;;;;6.50;1.75;;;5.90;99.90;;;;;;5041547;28;20025;-88
2023/03/05 05:36:40;;;;;;;12.82;2.08;;;5.90;99.90;;;;;;5058617;28;20434;-88
2023/03/05 05:39:06;;;;;;;10.65;3.20;;;5.90;99.90;;;;;;5041037;28;20033;-88
2023/03/05 05:41:32;;;;;;;8.02;2.00;;;5.90;99.90;;;;;;5058548;28;20111;-87
2023/03/05 05:43:57;;;;;;;12.25;2.20;;;5.90;99.90;;;;;;5040928;28;20384;-87
2023/03/05 05:46:23;;;;;;;7.82;1.83;;;5.90;99.90;;;;;;5041541;28;20033;-89
2023/03/05 05:48:49;;;;;;;7.43;1.90;;;5.90;99.90;;;;;;5075683;28;20029;-88
2023/03/05 05:51:20;;;;;;;7.18;2.00;;;5.90;99.90;;;;;;5057668;28;20024;-88
2023/03/05 05:53:46;;;;;;;9.38;2.03;;;5.80;99.90;;;;;;5076278;28;20041;-89
2023/03/05 05:56:13;;;;;;;8.75;2.00;;;5.80;99.90;;;;;;5042009;28;20446;-89
2023/03/05 05:58:40;;;;;;;9.95;2.00;;;5.80;99.90;;;;;;5065387;28;20039;-88
2023/03/05 06:01:32;;;;;;;11.65;2.10;;;5.80;99.90;;;;;;5072499;28;20016;-88
2023/03/05 06:03:58;;;;;;;9.07;2.45;;;5.80;99.90;;;;;;5057710;28;20032;-92
2023/03/05 06:06:25;;;;;;;11.68;2.53;;;5.80;99.90;;;;;;5064100;28;20005;-88
2023/03/05 06:08:51;;;;;;;5.80;1.83;;;5.80;99.90;;;;;;5058197;28;20024;-91
2023/03/05 06:11:18;;;;;;;8.38;2.28;;;5.80;99.90;;;;;;5075910;28;20009;-89
2023/03/05 06:13:44;;;;;;;12.60;2.40;;;5.70;99.90;;;;;;5063907;28;20027;-90
2023/03/05 06:16:29;;;;;;;7.18;1.88;;;5.80;99.90;;;;;;5076412;28;20044;-89
2023/03/05 06:18:54;;;;;;;10.23;2.03;;;5.80;99.90;;;;;;5061439;28;20076;-90
2023/03/05 06:21:21;;;;;;;9.90;2.60;;;5.80;99.90;;;;;;5061113;28;20118;-90
2023/03/05 06:23:48;;;;;;;5.13;1.90;;;5.80;99.90;;;;;;5078018;28;20024;-89
2023/03/05 06:26:17;;;;;;;8.90;1.77;;;5.80;99.90;;;;;;5079508;28;20031;-88
2023/03/05 06:28:43;;;;;;;7.57;1.88;;;5.70;99.90;;;;;;5079491;28;20032;-88
2023/03/05 06:31:11;;;;;;;7.20;1.90;;;5.80;99.90;;;;;;5082035;28;20024;-87
2023/03/05 06:33:40;;;;;;;7.45;2.00;;;5.80;99.90;;;;;;5082174;28;20464;-88
2023/03/05 06:36:11;;;;;;;6.72;1.70;;;5.80;99.90;;;;;;5081415;28;20051;-88
2023/03/05 06:38:37;;;;;;;8.55;1.95;;;5.80;99.90;;;;;;5081456;28;20024;-88
2023/03/05 06:41:05;;;;;;;7.20;2.30;;;5.70;99.90;;;;;;5081171;28;20039;-90
2023/03/05 06:43:32;;;;;;;7.53;2.20;;;5.70;99.90;;;;;;5081028;28;20032;-89
2023/03/05 06:46:06;;;;;;;6.50;2.30;;;5.70;99.90;;;;;;5065185;28;20020;-89
2023/03/05 06:48:32;;;;;;;6.93;2.08;;;5.70;99.90;;;;;;5081256;28;20020;-89
2023/03/05 06:50:58;;;;;;;7.55;2.03;;;5.70;99.90;;;;;;5065066;28;20130;-89
2023/03/05 06:53:25;;;;;;;9.45;2.15;;;5.70;99.90;;;;;;5064939;28;20107;-89
2023/03/05 06:55:51;;;;;;;7.80;2.33;;;5.70;99.90;;;;;;5080989;28;20422;-89
2023/03/05 06:58:17;;;;;;;10.40;1.80;;;5.70;99.90;;;;;;5064439;28;20036;-89
2023/03/05 07:00:43;;;;;;;8.07;2.28;;;5.70;99.90;;;;;;5065326;28;20353;-89
2023/03/05 07:03:10;;;;;;;6.95;2.33;;;5.70;99.90;;;;;;5081047;28;20114;-88
2023/03/05 07:05:39;;;;;;;7.60;1.80;;;5.70;99.90;;;;;;5098885;28;20028;-88
2023/03/05 07:08:05;;;;;;;12.25;2.67;;;5.70;99.90;;;;;;5098778;28;20028;-87
2023/03/05 07:10:31;;;;;;;6.75;1.90;;;5.70;99.90;;;;;;5080805;28;20032;-88
2023/03/05 07:12:57;;;;;;;6.38;2.25;;;5.70;99.90;;;;;;5063751;28;20060;-90
2023/03/05 07:15:23;;;;;;;11.23;2.45;;;5.70;99.90;;;;;;5079806;28;20125;-88
2023/03/05 07:17:49;;;;;;;9.25;2.40;;;5.70;99.90;;;;;;5064087;28;20036;-87
2023/03/05 07:20:14;;;;;;;9.20;2.60;;;5.70;99.90;;;;;;5062734;28;20032;-88
2023/03/05 07:22:40;;;;;;;8.07;2.17;;;5.70;99.90;;;;;;5062701;28;20028;-88
2023/03/05 07:25:06;;;;;;;8.05;2.72;;;5.70;99.90;;;;;;5079165;28;20051;-89
2023/03/05 07:27:37;;;;;;;7.72;2.38;;;5.70;99.90;;;;;;5079644;28;20035;-88
2023/03/05 07:30:03;;;;;;;9.65;2.70;;;5.70;99.90;;;;;;5079733;28;20069;-88
2023/03/05 07:32:29;;;;;;;7.82;2.40;;;5.70;99.90;;;;;;5063479;28;20034;-89
2023/03/05 07:34:55;;;;;;;8.70;2.90;;;5.70;99.90;;;;;;5080180;28;20462;-88
2023/03/05 07:37:20;;;;;;;8.85;2.78;;;5.70;99.90;;;;;;5063506;28;20039;-89
2023/03/05 07:39:46;;;;;;;8.60;2.58;;;5.70;99.90;;;;;;5063292;28;20024;-89
2023/03/05 07:42:12;;;;;;;6.85;2.42;;;5.70;99.90;;;;;;5063733;28;20040;-88
2023/03/05 07:44:38;;;;;;;6.85;2.63;;;5.70;99.90;;;;;;5063548;28;20035;-89
2023/03/05 07:47:04;;;;;;;9.35;3.00;;;5.80;99.90;;;;;;5063359;28;20035;-88
2023/03/05 07:49:30;;;;;;;6.07;2.03;;;5.80;99.90;;;;;;5063595;28;20024;-89
2023/03/05 07:51:55;;;;;;;7.70;2.50;;;5.80;99.90;;;;;;5063799;28;20380;-88
2023/03/05 07:54:21;;;;;;;7.80;2.15;;;5.80;99.90;;;;;;5046432;28;20036;-89
2023/03/05 07:56:47;;;;;;;10.10;2.63;;;5.80;99.90;;;;;;5063082;28;20059;-89
2023/03/05 07:59:13;;;;;;;8.65;2.17;;;5.80;99.90;;;;;;5046171;28;20039;-88
2023/03/05 08:01:39;;;;;;;5.13;1.83;;;5.90;99.90;;;;;;5097382;28;20024;-87
2023/03/05 08:04:05;;;;;;;4.68;2.03;;;5.90;99.90;;;;;;5079380;28;20024;-87
2023/03/05 08:06:31;;;;;;;6.93;2.50;;;5.90;99.90;;;;;;5082517;28;20024;-91
2023/03/05 08:08:59;;;;;;;7.10;3.00;;;5.90;99.90;;;;;;5068530;28;20032;-90
2023/03/05 08:11:27;;;;;;;7.57;2.40;;;5.90;99.90;;;;;;5079566;28;20464;-93
2023/03/05 08:13:53;;;;;;;10.45;2.70;;;5.90;99.90;;;;;;5062466;28;20027;-86
2023/03/05 08:16:20;;;;;;;7.22;2.75;;;6.00;99.90;;;;;;5073183;28;20052;-89
2023/03/05 08:18:46;;;;;;;8.15;2.85;;;6.00;99.90;;;;;;5059455;28;20103;-90
2023/03/05 08:21:17;;;;;;;8.95;2.63;;;6.00;99.90;;;;;;5059438;28;20032;-88
2023/03/05 08:23:43;;;;;;;8.07;2.60;;;6.10;99.90;;;;;;5059625;28;20024;-90
2023/03/05 08:26:18;;;;;;;6.20;2.67;;;6.10;99.90;;;;;;5059764;28;20173;-91
2023/03/05 08:28:45;;;;;;;7.60;2.88;;;6.10;99.90;;;;;;5061350;28;20020;-87
2023/03/05 08:31:12;;;;;;;8.93;3.10;;;6.10;99.90;;;;;;5059306;28;20052;-88
2023/03/05 08:33:39;;;;;;;8.13;3.03;;;6.10;99.90;;;;;;5076626;28;20112;-87
2023/03/05 08:36:07;;;;;;;10.85;2.65;;;6.10;99.90;;;;;;5076661;28;20111;-93
2023/03/05 08:38:33;;;;;;;8.65;2.70;;;6.20;99.90;;;;;;5042873;28;20055;-92
2023/03/05 08:40:59;;;;;;;8.38;2.78;;;6.20;99.90;;;;;;5059040;28;20033;-92
2023/03/05 08:43:24;;;;;;;7.75;2.47;;;6.20;99.90;;;;;;5042089;28;20549;-88
2023/03/05 08:45:52;;;;;;;6.13;1.80;;;6.30;99.90;;;;;;5042150;28;20472;-87
2023/03/05 08:48:18;;;;;;;4.57;1.48;;;6.30;99.90;;;;;;5044146;28;20055;-89
2023/03/05 08:50:44;;;;;;;4.95;1.60;;;6.30;99.90;;;;;;5061183;28;20467;-86
2023/03/05 08:53:09;;;;;;;6.78;1.55;;;6.30;99.90;;;;;;5077556;28;20020;-88
2023/03/05 08:55:36;;;;;;;8.02;1.92;;;6.30;99.90;;;;;;5077647;28;20529;-87
2023/03/05 08:58:02;;;;;;;3.72;1.63;;;6.30;99.90;;;;;;5061342;28;20126;-88
2023/03/05 09:00:28;;;;;;;6.05;1.63;;;6.40;99.90;;;;;;5061103;28;20450;-88
2023/03/05 09:02:53;;;;;;;7.82;1.40;;;6.40;99.90;;;;;;5095562;28;20380;-87
2023/03/05 09:05:19;;;;;;;9.95;2.85;;;6.40;99.90;;;;;;5077188;28;20388;-87
2023/03/05 09:07:45;;;;;;;7.35;1.70;;;6.40;99.90;;;;;;5076670;28;20402;-87
2023/03/05 09:10:12;;;;;;;5.80;1.50;;;6.40;99.90;;;;;;5060435;28;20041;-90
2023/03/05 09:12:38;;;;;;;6.45;1.52;;;6.40;99.90;;;;;;5077362;28;20047;-88
2023/03/05 09:15:07;;;;;;;6.28;1.50;;;6.50;99.90;;;;;;5065004;28;20055;-91
2023/03/05 09:17:33;;;;;;;3.42;1.08;;;6.50;99.90;;;;;;5084185;28;20028;-87
2023/03/05 09:19:59;;;;;;;3.08;1.45;;;6.50;99.90;;;;;;5099331;28;20027;-94
2023/03/05 09:22:25;;;;;;;5.10;1.80;;;6.60;99.90;;;;;;5086487;28;20024;-89
2023/03/05 09:24:51;;;;;;;4.97;1.60;;;6.60;99.90;;;;;;5084055;28;20046;-87
2023/03/05 09:27:16;;;;;;;2.80;1.60;;;6.60;99.90;;;;;;5068691;28;20036;-90
2023/03/05 09:29:42;;;;;;;5.72;2.35;;;6.60;99.90;;;;;;5061917;28;20027;-88
2023/03/05 09:32:08;;;;;;;3.20;1.50;;;6.60;99.90;;;;;;5079599;28;20024;-87
2023/03/05 09:34:34;;;;;;;3.83;1.88;;;6.60;99.90;;;;;;5095505;28;20024;-89
2023/03/05 09:36:59;;;;;;;6.55;2.53;;;6.60;99.90;;;;;;5094844;28;20467;-87
2023/03/05 09:39:25;;;;;;;4.68;1.77;;;6.60;99.90;;;;;;5077844;28;20491;-88
2023/03/05 09:42:26;;;;;;;6.03;2.08;;;6.70;99.90;;;;;;5079556;28;20020;-88
2023/03/05 09:45:39;;;;;;;4.20;1.63;;;6.70;99.90;;;;;;5095423;28;20024;-85
2023/03/05 09:48:19;;;;;;;4.60;2.00;;;6.70;99.90;;;;;;5092725;28;20067;-87
2023/03/05 09:50:49;;;;;;;7.47;2.33;;;6.80;99.90;;;;;;5094809;28;20415;-89
2023/03/05 09:53:24;;;;;;;4.95;1.85;;;6.80;99.90;;;;;;5095265;28;20020;-89
2023/03/05 09:55:55;;;;;;;8.00;1.88;;;6.80;99.90;;;;;;5095198;28;20468;-89
2023/03/05 09:58:41;;;;;;;4.50;1.85;;;6.80;99.90;;;;;;5096029;28;20046;-90
2023/03/05 10:01:21;;;;;;;3.08;1.60;;;6.90;99.90;;;;;;5096667;28;20026;-88
2023/03/05 10:03:53;;;;;;;4.53;1.65;;;6.90;99.90;;;;;;5098756;28;20023;-88
2023/03/05 10:06:48;;;;;;;6.65;1.75;;;6.90;99.90;;;;;;5099601;28;20024;-89
2023/03/05 10:10:01;;;;;;;6.15;2.10;;;7.00;99.90;;;;;;5098645;28;20069;-92
2023/03/05 10:12:37;;;;;;;9.23;2.72;;;7.00;99.90;;;;;;5099885;28;20345;-89
2023/03/05 10:15:20;;;;;;;5.65;2.25;;;7.10;99.90;;;;;;5102375;28;20020;-93
2023/03/05 10:18:19;;;;;;;5.13;2.15;;;7.10;99.90;;;;;;5102972;28;20491;-91
2023/03/05 10:20:51;;;;;;;7.32;1.90;;;7.10;99.90;;;;;;5101649;28;20027;-88
2023/03/05 10:23:36;;;;;;;5.00;2.10;;;7.20;99.90;;;;;;5081200;28;20374;-90
2023/03/05 10:26:10;;;;;;;3.72;1.48;;;7.10;99.90;;;;;;5099415;28;20475;-89
2023/03/05 10:29:14;;;;;;;4.85;1.55;;;7.10;99.90;;;;;;5081954;28;20032;-91
2023/03/05 10:31:39;;;;;;;5.10;2.10;;;7.20;99.90;;;;;;5101019;28;20069;-93
2023/03/05 10:34:42;;;;;;;6.93;1.60;;;7.20;99.90;;;;;;5083009;28;20024;-90
2023/03/05 10:40:40;;;;;;;4.20;1.58;;;7.20;99.90;;;;;;5043049;28;20048;-93
2023/03/05 10:43:20;;;;;;;9.35;2.58;;;7.20;99.90;;;;;;5083505;28;20110;-91
2023/03/05 10:46:27;;;;;;;5.50;1.75;;;7.20;99.90;;;;;;5084428;28;20451;-92
2023/03/05 10:49:04;;;;;;;5.32;1.50;;;7.30;99.90;;;;;;5102805;28;20016;-91
2023/03/05 10:51:58;;;;;;;2.40;0.90;;;7.30;99.90;;;;;;5085564;28;20031;-92
2023/03/05 10:54:29;;;;;;;5.80;1.23;;;7.30;99.90;;;;;;5086696;28;20024;-93
2023/03/05 10:57:24;;;;;;;3.88;1.52;;;7.30;99.90;;;;;;5083008;28;20028;-92
2023/03/05 11:00:04;;;;;;;5.70;1.92;;;7.40;99.90;;;;;;5084256;28;20028;-92
2023/03/05 11:02:30;;;;;;;4.40;1.50;;;7.40;99.90;;;;;;5082164;28;20166;-93
2023/03/05 11:04:58;;;;;;;4.28;1.25;;;7.40;99.90;;;;;;5064985;28;20058;-92
2023/03/05 11:07:24;;;;;;;6.75;1.83;;;7.50;99.90;;;;;;5085667;28;20028;-91
2023/03/05 11:10:15;;;;;;;5.32;1.60;;;7.50;99.90;;;;;;5085073;28;20038;-92
2023/03/05 11:12:41;;;;;;;;;;;7.50;99.90;;;;;;5083465;28;20031;-93
2023/03/05 11:15:26;;;;;;;;;;;;;;;;;;;;;
2023/03/05 11:18:17;;;;;;;11.07;4.50;;;7.50;99.90;;;;;;5101252;28;20107;-92
2023/03/05 11:20:45;;;;;;;5.70;2.40;;;7.50;99.90;;;;;;5100188;28;20024;-91
2023/03/05 11:23:22;;;;;;;8.60;3.53;;;7.50;99.90;;;;;;5082362;28;20050;-92
2023/03/05 11:26:22;;;;;;;15.00;5.80;;;7.50;99.90;;;;;;5080609;28;20051;-88
2023/03/05 11:28:50;;;;;;;6.40;1.90;;;7.50;99.90;;;;;;5079343;28;20085;-90
2023/03/05 11:31:16;;;;;;;6.28;1.98;;;7.60;99.90;;;;;;5079328;28;20024;-89
2023/03/05 11:34:17;;;;;;;5.63;1.52;;;7.60;99.90;;;;;;5098272;28;20077;-90
2023/03/05 11:37:02;;;;;;;8.10;4.25;;;7.60;99.90;;;;;;5077020;28;20036;-90
2023/03/05 11:39:31;;;;;;;7.18;2.65;;;7.70;99.90;;;;;;5079987;28;20016;-88
2023/03/05 11:42:06;;;;;;;5.22;2.28;;;7.80;99.90;;;;;;5080493;28;20024;-90
2023/03/05 11:44:49;;;;;;;4.10;1.23;;;7.80;99.90;;;;;;5098286;28;20097;-89
2023/03/05 11:47:28;;;;;;;12.68;4.95;;;7.90;99.90;;;;;;5084604;28;20020;-89
2023/03/05 11:50:14;;;;;;;5.88;2.15;;;8.00;99.90;;;;;;5079908;28;20024;-89
2023/03/05 11:52:49;;;;;;;9.15;4.00;;;8.00;99.90;;;;;;5083935;28;20020;-91
2023/03/05 11:55:25;;;;;;;10.88;2.58;;;8.00;99.90;;;;;;5080361;28;20028;-93
2023/03/05 11:58:00;;;;;;;5.88;2.35;;;8.00;99.90;;;;;;5097216;28;20024;-86
2023/03/05 12:00:30;;;;;;;4.07;1.33;;;8.10;99.90;;;;;;5097788;28;20028;-90
2023/03/05 12:02:59;;;;;;;3.42;1.30;;;8.10;99.90;;;;;;5079359;28;20368;-88
2023/03/05 12:05:26;;;;;;;3.85;1.20;;;8.30;99.90;;;;;;5097335;28;20036;-91
2023/03/05 12:07:56;;;;;;;5.57;2.20;;;8.30;99.90;;;;;;5062716;28;20036;-90
2023/03/05 12:10:24;;;;;;;6.15;1.83;;;8.40;99.90;;;;;;5079422;28;20478;-90
2023/03/05 12:13:09;;;;;;;8.02;3.95;;;8.40;99.90;;;;;;5079203;28;20024;-90
2023/03/05 12:15:45;;;;;;;9.30;3.70;;;8.40;99.90;;;;;;5093014;28;20040;-88
2023/03/05 12:18:44;;;;;;;5.10;2.30;;;8.40;99.90;;;;;;5079409;28;20106;-89
2023/03/05 12:21:32;;;;;;;4.47;1.70;;;8.40;99.90;;;;;;5080280;28;20024;-87
2023/03/05 12:24:01;;;;;;;4.05;1.70;;;8.40;99.90;;;;;;5082496;28;20030;-89
2023/03/05 12:26:51;;;;;;;4.53;1.40;;;8.40;99.90;;;;;;5084674;28;20024;-88
2023/03/05 12:29:29;;;;;;;5.75;2.38;;;8.50;99.90;;;;;;5071458;28;20042;-88
2023/03/05 12:31:56;;;;;;;4.45;1.75;;;8.50;99.90;;;;;;5081072;28;20016;-88
2023/03/05 12:34:40;;;;;;;3.08;1.70;;;8.50;99.90;;;;;;5103517;28;20413;-88
2023/03/05 12:37:20;;;;;;;5.57;2.42;;;8.60;99.90;;;;;;5078288;28;20028;-89
2023/03/05 12:39:56;;;;;;;6.22;1.92;;;8.60;99.90;;;;;;5097293;28;20028;-88
2023/03/05 12:42:28;;;;;;;2.25;1.58;;;8.60;99.90;;;;;;5077939;28;20024;-89
2023/03/05 12:45:09;;;;;;;3.15;0.90;;;8.70;99.90;;;;;;5073141;28;20073;-89
2023/03/05 12:48:10;;;;;;;4.13;1.92;;;8.70;99.90;;;;;;5074853;28;20027;-87
2023/03/05 12:50:36;;;;;;;4.45;1.30;;;8.80;99.90;;;;;;5082024;28;20129;-87
2023/03/05 12:53:17;;;;;;;3.15;1.10;;;8.80;99.90;;;;;;5077796;28;20028;-88
2023/03/05 12:56:10;;;;;;;2.63;1.00;;;8.90;99.90;;;;;;5077050;28;20034;-88
2023/03/05 12:58:43;;;;;;;5.50;2.42;;;8.90;99.90;;;;;;5077902;28;20031;-90
2023/03/05 13:01:44;;;;;;;4.70;2.58;;;9.00;99.90;;;;;;5081573;28;20038;-91
2023/03/05 13:04:21;;;;;;;3.60;1.27;;;9.00;99.90;;;;;;5035918;28;20039;-89
2023/03/05 13:06:58;;;;;;;2.80;0.95;;;9.00;99.90;;;;;;5078277;28;20028;-89
2023/03/05 13:09:30;;;;;;;3.17;0.80;;;9.00;99.90;;;;;;5078341;28;20468;-88
2023/03/05 13:11:57;;;;;;;3.90;1.10;;;9.10;99.90;;;;;;5096653;28;20471;-88
2023/03/05 13:14:42;;;;;;;2.38;0.95;;;9.10;99.90;;;;;;5061858;28;20020;-88